Portada
METAR-TAF:

METAR-TAF

Aeropuertos :

Nasáu, Bahamas

Aeropuerto Internacional Lynden Pindling

latitud: 25-03N, longitud: 077-28W, altitud: 3 m

Observación

El informe se hizo hace 56 minutos, a las 19:00 UTC
Viento 12 kt del norte
Temperatura 23°C
Humedad 57%
Presión 1022 hPa
Visibilidad 10 km o más
Nubes dispersas a una altura de 1800 ft
Cielo nuboso a una altura de 3500 ft

METAR: MYNN 181900Z 35012KT 9999 SCT018 BKN035 23/14 A3019

Hora: 14:56 (19:56 UTC)

Pronóstico

El informe se hizo hace 3 horas y 26 minutos, a las 16:30 UTC
Pronóstico válido del 18 a las 18 UTC al 19 a las 18 UTC
Viento 12 kt del noroeste con ráfagas de 25 kt
Visibilidad 10 km o más
Nubes dispersas a una altura de 1800 ft
Cielo nuboso a una altura de 3500 ft
Evolucionando progresivamente
del 19 a las 12 UTC al 19 a las 14 UTC
Viento 10 kt del norte-noreste

TAF: MYNN 181630Z 1818/1918 32012G25KT 9999 SCT018 BKN035 BECMG 1912/1914 02010KT

Observaciones y pronósticos meteorológicos de más de 4000 aeropuertos (mensajes METAR y TAF).

Los puntos amarillos y rojos representan las estaciones disponibles.

Ponga el ratón en el punto deseado para ver el nombre de la estación.

Haga clic para ver las observaciones y los pronósticos meteorológicos.

Para cambiar el mapa : haga clic en los botones verdes con una cruz de color negro para hacer un zoom, en el botón verde con un guión para alejar o en las flechas verdes para mapas adyacentes.


METAR-TAF: